»·PEaware :: N737GA KSMX-KBFL

N737GA :: KSMX-KBFL

FLIGHT INFORMATION

Flight Status: Arrived
Operator: Privately registered:
United States
More flights under this callsign
Pilot: Jeff M. (21141)
Aircraft: CESSNA 172 SKYHAWK
(C172)
More flights by this aircraft type
Origin: KSMX Santa Maria Pub/Capt Hancock
United States
Destination: KBFL Meadows
United States
More flights between these airports :: More routes between these airports
Route: +
File this flight plan on PilotEdge
Remarks:
Altitude:
(Current/Filed)
0ft
Speed:
(Current/Filed)
0kts
Departed: 13-Feb-20 04:40 PM
Arrived: 13-Feb-20 05:28 PM
Distance/Time
Traveled:
76nm/0:48
Distance/Time
To Go:
Arrived

Flight Plot

Page will automatically refresh every two minutes.


Map Options




Map Legend


Flown Route
Filed Route
Departure Airport
Arrival Airport
Navaid (VOR, NDB)
Fix

Horizontal Profiles

Position Reports

Time Latitude Longitude Heading Altitude Ground
Speed
13-Feb-20 16:38 34.893441 -120.446653 314 265ft 38kts
13-Feb-20 16:39 34.910915 -120.460780 10 1214ft 85kts
13-Feb-20 16:40 34.926394 -120.437924 72 2270ft 92kts
13-Feb-20 16:41 34.909231 -120.424353 147 3269ft 91kts
13-Feb-20 16:42 34.906719 -120.395611 52 4118ft 100kts
13-Feb-20 16:43 34.925401 -120.372607 44 4992ft 98kts
13-Feb-20 16:44 34.936721 -120.344337 86 5767ft 96kts
13-Feb-20 16:45 34.939347 -120.310839 87 6494ft 95kts
13-Feb-20 16:46 34.943257 -120.276840 78 7128ft 97kts
13-Feb-20 16:47 34.950615 -120.243012 73 7380ft 104kts
13-Feb-20 16:48 34.964336 -120.209540 61 7378ft 108kts
13-Feb-20 16:49 34.978651 -120.175480 64 7378ft 108kts
13-Feb-20 16:51 34.991440 -120.141691 66 7378ft 108kts
13-Feb-20 16:52 35.004033 -120.106555 67 7378ft 108kts
13-Feb-20 16:53 35.016638 -120.070379 67 7379ft 114kts
13-Feb-20 16:54 35.029477 -120.032975 67 7378ft 115kts
13-Feb-20 16:55 35.042316 -119.995275 67 7378ft 115kts
13-Feb-20 16:56 35.055056 -119.957719 67 7378ft 115kts
13-Feb-20 16:57 35.067855 -119.919928 67 7382ft 118kts
13-Feb-20 16:58 35.079990 -119.881621 72 7452ft 117kts
13-Feb-20 16:59 35.095020 -119.843877 60 7421ft 119kts
13-Feb-20 17:00 35.112102 -119.807379 60 7448ft 117kts
13-Feb-20 17:01 35.129632 -119.772216 57 7534ft 117kts
13-Feb-20 17:02 35.147838 -119.736447 59 7535ft 119kts
13-Feb-20 17:03 35.165375 -119.699972 60 7534ft 119kts
13-Feb-20 17:04 35.182199 -119.664029 60 7534ft 119kts
13-Feb-20 17:05 35.197336 -119.627758 65 7534ft 119kts
13-Feb-20 17:06 35.212695 -119.590505 62 7533ft 119kts
13-Feb-20 17:07 35.228671 -119.553108 62 7532ft 119kts
13-Feb-20 17:08 35.244988 -119.515398 62 7463ft 124kts
13-Feb-20 17:09 35.260253 -119.480191 62 7092ft 102kts
13-Feb-20 17:10 35.274165 -119.448210 62 6678ft 103kts
13-Feb-20 17:10 35.285743 -119.421604 62 6337ft 104kts
13-Feb-20 17:12 35.303147 -119.383540 39 5651ft 110kts
13-Feb-20 17:13 35.312520 -119.349414 65 5081ft 111kts
13-Feb-20 17:13 35.325992 -119.323622 55 4761ft 104kts
13-Feb-20 17:15 35.344989 -119.287669 58 4257ft 103kts
13-Feb-20 17:15 35.357008 -119.262869 61 3721ft 88kts
13-Feb-20 17:16 35.368805 -119.236586 61 2917ft 92kts
13-Feb-20 17:17 35.379682 -119.210411 63 2558ft 83kts
13-Feb-20 17:18 35.391369 -119.182055 63 2177ft 98kts
13-Feb-20 17:19 35.402998 -119.153911 63 2194ft 90kts
13-Feb-20 17:20 35.414330 -119.126557 63 2194ft 89kts
13-Feb-20 17:21 35.425650 -119.099286 63 2194ft 89kts
13-Feb-20 17:22 35.422502 -119.074921 114 1976ft 82kts
13-Feb-20 17:23 35.410748 -119.054817 138 1741ft 74kts
13-Feb-20 17:24 35.406439 -119.034108 42 1513ft 67kts
13-Feb-20 17:25 35.420986 -119.041079 316 987ft 57kts
13-Feb-20 17:26 35.431331 -119.053196 315 540ft 46kts
13-Feb-20 17:27 35.436330 -119.057601 80 493ft 0kts
13-Feb-20 17:28 35.434214 -119.054452 134 492ft 11kts
13-Feb-20 17:29 35.432643 -119.052089 43 495ft 6kts
13-Feb-20 17:30 35.433343 -119.051587 208 499ft 0kts
13-Feb-20 17:31 35.433343 -119.051587 208 499ft 0kts
13-Feb-20 17:32 35.433343 -119.051587 208 499ft 0kts
13-Feb-20 17:33 35.433343 -119.051587 208 499ft 0kts
13-Feb-20 17:34 35.433343 -119.051587 208 499ft 0kts

Navigation Log

Ident Type
Flight plan parsing failed, navigation log unavailable